Time;durP1;ratioP1;P1;durP2;ratioP2;P2;SDS_P1;SDS_P2;PMS_P1;PMS_P2;Temp;Humidity;BMP_temperature;BMP_pressure;BME280_temperature;BME280_humidity;BME280_pressure;Samples;Min_cycle;Max_cycle;Signal;HPM_P1;HPM_P2
2022/06/28 00:00:45;;;;;;;23.98;21.38;;;;;;;;;;2073497;28;20169;-53
2022/06/28 00:01:46;;;;;;;22.83;20.38;;;;;;;;;;2073981;28;20181;-49
2022/06/28 00:02:46;;;;;;;23.90;21.30;;;;;;;;;;2073671;28;20226;-50
2022/06/28 00:03:46;;;;;;;24.13;20.55;;;;;;;;;;2073792;28;20264;-49
2022/06/28 00:04:47;;;;;;;24.00;21.17;;;;;;;;;;2072951;28;20177;-50
2022/06/28 00:05:47;;;;;;;25.20;22.50;;;;;;;;;;2073786;28;20165;-49
2022/06/28 00:06:48;;;;;;;25.17;21.58;;;;;;;;;;2073808;28;20189;-52
2022/06/28 00:07:48;;;;;;;25.73;21.88;;;;;;;;;;2073511;28;20173;-50
2022/06/28 00:08:48;;;;;;;27.65;22.70;;;;;;;;;;2073652;28;20173;-47
2022/06/28 00:09:48;;;;;;;27.33;24.08;;;;;;;;;;2073833;28;20180;-51
2022/06/28 00:10:49;;;;;;;25.77;23.10;;;;;;;;;;2073354;28;20173;-48
2022/06/28 00:11:49;;;;;;;28.90;24.98;;;;;;;;;;2073719;28;20185;-50
2022/06/28 00:12:50;;;;;;;28.17;23.75;;;;;;;;;;2073465;28;20193;-55
2022/06/28 00:13:51;;;;;;;28.42;24.95;;;;;;;;;;2073085;28;20172;-50
2022/06/28 00:16:15;;;;;;;27.27;23.95;;;;;;;;;;2074108;28;20598;-53
2022/06/28 00:17:15;;;;;;;27.00;24.13;;;;;;;;;;2073162;28;20272;-50
2022/06/28 00:18:15;;;;;;;28.92;25.35;;;;;;;;;;2072977;28;20171;-49
2022/06/28 00:19:16;;;;;;;28.88;25.88;;;;;;;;;;2073591;28;20184;-50
2022/06/28 00:20:16;;;;;;;29.73;24.60;;;;;;;;;;2072797;28;20700;-55
2022/06/28 00:21:18;;;;;;;30.45;26.00;;;;;;;;;;2072942;28;20189;-51
2022/06/28 00:22:18;;;;;;;30.17;26.92;;;;;;;;;;2064906;28;20194;-49
2022/06/28 00:23:18;;;;;;;31.55;27.70;;;;;;;;;;2064909;28;20189;-54
2022/06/28 00:24:19;;;;;;;33.60;28.15;;;;;;;;;;2065050;28;20201;-49
2022/06/28 00:25:19;;;;;;;30.58;25.13;;;;;;;;;;2072684;28;20177;-48
2022/06/28 00:26:20;;;;;;;30.30;26.98;;;;;;;;;;2072884;28;20176;-46
2022/06/28 00:27:20;;;;;;;30.80;26.48;;;;;;;;;;2072729;28;20213;-48
2022/06/28 00:28:21;;;;;;;29.88;25.33;;;;;;;;;;2072889;28;20216;-54
2022/06/28 00:29:21;;;;;;;33.55;27.73;;;;;;;;;;2072882;28;20572;-52
2022/06/28 00:30:21;;;;;;;30.08;26.90;;;;;;;;;;2073247;28;20222;-49
2022/06/28 00:31:25;;;;;;;33.67;28.65;;;;;;;;;;2073594;28;20645;-51
2022/06/28 00:32:26;;;;;;;34.80;28.17;;;;;;;;;;2073349;28;20189;-53
2022/06/28 00:33:26;;;;;;;31.48;27.92;;;;;;;;;;2072567;28;20184;-48
2022/06/28 00:34:27;;;;;;;35.00;28.80;;;;;;;;;;2071905;28;20188;-50
2022/06/28 00:35:27;;;;;;;34.65;28.98;;;;;;;;;;2073716;28;20164;-51
2022/06/28 00:36:27;;;;;;;36.53;29.95;;;;;;;;;;2073229;28;20180;-53
2022/06/28 00:37:28;;;;;;;36.55;30.70;;;;;;;;;;2072598;28;20195;-52
2022/06/28 00:38:28;;;;;;;38.38;30.33;;;;;;;;;;2072910;28;20184;-51
2022/06/28 00:39:28;;;;;;;33.90;29.05;;;;;;;;;;2064573;28;20809;-50
2022/06/28 00:40:30;;;;;;;40.47;30.77;;;;;;;;;;2064342;28;20268;-50
2022/06/28 00:41:30;;;;;;;42.30;32.70;;;;;;;;;;2072584;28;20181;-53
2022/06/28 00:42:31;;;;;;;40.55;31.77;;;;;;;;;;2065913;28;20206;-49
2022/06/28 00:43:31;;;;;;;42.00;32.30;;;;;;;;;;2072772;28;20264;-49
2022/06/28 00:44:31;;;;;;;38.92;31.15;;;;;;;;;;2071655;28;20173;-54
2022/06/28 00:45:32;;;;;;;44.55;32.58;;;;;;;;;;2073143;28;20197;-52
2022/06/28 00:46:35;;;;;;;39.72;31.50;;;;;;;;;;2072562;28;20179;-51
2022/06/28 00:47:36;;;;;;;40.28;31.92;;;;;;;;;;2065250;28;20235;-49
2022/06/28 00:48:36;;;;;;;39.05;30.42;;;;;;;;;;2072819;28;20208;-52
2022/06/28 00:49:40;;;;;;;38.30;31.92;;;;;;;;;;2072782;28;20212;-49
2022/06/28 00:50:41;;;;;;;38.58;31.17;;;;;;;;;;2070224;28;20579;-50
2022/06/28 00:51:41;;;;;;;42.25;32.85;;;;;;;;;;2073334;28;20169;-50
2022/06/28 00:53:01;;;;;;;42.80;33.08;;;;;;;;;;2072399;28;20240;-51
2022/06/28 00:54:01;;;;;;;43.65;35.55;;;;;;;;;;2065769;28;20172;-50
2022/06/28 00:55:02;;;;;;;45.58;33.22;;;;;;;;;;2072505;28;20179;-48
2022/06/28 00:56:02;;;;;;;43.05;33.15;;;;;;;;;;2073389;28;20176;-52
2022/06/28 00:57:03;;;;;;;38.80;31.08;;;;;;;;;;2073224;28;20181;-51
2022/06/28 00:58:04;;;;;;;44.20;31.73;;;;;;;;;;2072703;28;20175;-52
2022/06/28 00:59:04;;;;;;;41.63;32.05;;;;;;;;;;2072437;28;20244;-48
2022/06/28 01:00:05;;;;;;;40.28;32.30;;;;;;;;;;2072752;28;20189;-51
2022/06/28 01:01:05;;;;;;;43.60;33.30;;;;;;;;;;2064346;28;20170;-52
2022/06/28 01:02:06;;;;;;;47.70;35.78;;;;;;;;;;2072873;28;20173;-55
2022/06/28 01:03:07;;;;;;;47.95;34.97;;;;;;;;;;2073561;28;20167;-48
2022/06/28 01:04:07;;;;;;;46.53;36.75;;;;;;;;;;2072095;28;20657;-56
2022/06/28 01:05:08;;;;;;;52.22;35.80;;;;;;;;;;2064921;28;20622;-51
2022/06/28 01:06:08;;;;;;;49.97;35.65;;;;;;;;;;2071159;28;20182;-53
2022/06/28 01:07:09;;;;;;;46.80;35.30;;;;;;;;;;2073206;28;20685;-50
2022/06/28 01:08:11;;;;;;;42.90;33.25;;;;;;;;;;2073924;28;20177;-51
2022/06/28 01:09:11;;;;;;;45.53;34.80;;;;;;;;;;2073172;28;20180;-51
2022/06/28 01:10:12;;;;;;;44.60;33.95;;;;;;;;;;2073214;28;20181;-55
2022/06/28 01:11:20;;;;;;;46.08;33.58;;;;;;;;;;2063175;28;20572;-55
2022/06/28 01:12:30;;;;;;;43.00;32.00;;;;;;;;;;2058921;28;20581;-54
2022/06/28 01:13:30;;;;;;;45.13;34.10;;;;;;;;;;2065039;28;20253;-52
2022/06/28 01:14:31;;;;;;;41.53;32.95;;;;;;;;;;2066702;28;20681;-55
2022/06/28 01:15:41;;;;;;;42.22;32.83;;;;;;;;;;2072616;28;20208;-55
2022/06/28 01:16:43;;;;;;;39.83;32.15;;;;;;;;;;2064862;28;20586;-52
2022/06/28 01:17:48;;;;;;;37.17;30.13;;;;;;;;;;2065230;28;20177;-50
2022/06/28 01:19:04;;;;;;;42.58;30.60;;;;;;;;;;2073000;28;20169;-53
2022/06/28 01:20:10;;;;;;;39.08;31.00;;;;;;;;;;2072169;28;20184;-53
2022/06/28 01:21:35;;;;;;;41.70;32.08;;;;;;;;;;2072626;28;20168;-52
2022/06/28 01:22:38;;;;;;;41.70;31.90;;;;;;;;;;2064685;28;20740;-50
2022/06/28 01:23:40;;;;;;;40.33;32.42;;;;;;;;;;2064852;28;20194;-51
2022/06/28 01:25:03;;;;;;;45.38;33.90;;;;;;;;;;2063679;28;20189;-49
2022/06/28 01:26:06;;;;;;;40.50;31.08;;;;;;;;;;2070121;28;20169;-49
2022/06/28 01:27:14;;;;;;;40.45;31.90;;;;;;;;;;2065888;28;20177;-51
2022/06/28 01:28:15;;;;;;;39.80;29.83;;;;;;;;;;2072761;28;20767;-54
2022/06/28 01:29:16;;;;;;;38.83;29.75;;;;;;;;;;2064799;28;20194;-52
2022/06/28 01:30:28;;;;;;;41.95;30.15;;;;;;;;;;2065997;28;20165;-53
2022/06/28 01:31:33;;;;;;;43.13;33.33;;;;;;;;;;2065967;28;20185;-55
2022/06/28 01:32:34;;;;;;;38.13;31.77;;;;;;;;;;2065714;28;20198;-54
2022/06/28 01:33:40;;;;;;;41.13;31.33;;;;;;;;;;2073805;28;20165;-51
2022/06/28 01:34:44;;;;;;;44.50;33.95;;;;;;;;;;2065547;28;20257;-55
2022/06/28 01:35:49;;;;;;;40.50;30.48;;;;;;;;;;2073846;28;20211;-54
2022/06/28 01:36:51;;;;;;;42.45;33.05;;;;;;;;;;2065303;28;20244;-53
2022/06/28 01:37:53;;;;;;;41.97;32.90;;;;;;;;;;2065371;28;20174;-51
2022/06/28 01:38:55;;;;;;;45.53;32.80;;;;;;;;;;2065254;28;20615;-51
2022/06/28 01:39:55;;;;;;;40.08;31.58;;;;;;;;;;2073145;28;20181;-53
2022/06/28 01:40:56;;;;;;;44.63;33.03;;;;;;;;;;2065280;28;20204;-55
2022/06/28 01:41:57;;;;;;;39.33;31.98;;;;;;;;;;2073261;28;20879;-50
2022/06/28 01:43:00;;;;;;;42.05;32.22;;;;;;;;;;2065472;28;20185;-50
2022/06/28 01:44:03;;;;;;;45.72;34.67;;;;;;;;;;2064260;28;20177;-51
2022/06/28 01:45:04;;;;;;;49.13;34.92;;;;;;;;;;2065048;28;20184;-50
2022/06/28 01:46:06;;;;;;;48.60;35.30;;;;;;;;;;2064410;28;20198;-49
2022/06/28 01:47:10;;;;;;;46.83;34.63;;;;;;;;;;2064696;28;20260;-52
2022/06/28 01:48:40;;;;;;;38.03;29.85;;;;;;;;;;2052025;28;20229;-49
2022/06/28 01:49:46;;;;;;;45.38;33.80;;;;;;;;;;2055762;28;20201;-52
2022/06/28 01:50:48;;;;;;;48.08;35.83;;;;;;;;;;2064127;28;20217;-47
2022/06/28 01:51:50;;;;;;;45.88;34.95;;;;;;;;;;2056464;28;20181;-51
2022/06/28 01:52:51;;;;;;;43.90;32.90;;;;;;;;;;2064527;28;20709;-51
2022/06/28 01:54:09;;;;;;;43.60;33.38;;;;;;;;;;2066106;28;20153;-52
2022/06/28 01:55:10;;;;;;;50.22;35.22;;;;;;;;;;2067943;28;20177;-54
2022/06/28 01:56:14;;;;;;;45.78;32.95;;;;;;;;;;2067740;28;20705;-55
2022/06/28 01:57:35;;;;;;;54.75;34.70;;;;;;;;;;2074660;28;20179;-51
2022/06/28 01:58:36;;;;;;;48.20;34.78;;;;;;;;;;2075171;28;20808;-54
2022/06/28 01:59:36;;;;;;;50.80;35.10;;;;;;;;;;2066940;28;20174;-52
2022/06/28 02:00:42;;;;;;;50.03;37.00;;;;;;;;;;2075147;28;20338;-55
2022/06/28 02:01:43;;;;;;;50.78;33.30;;;;;;;;;;2067524;28;20245;-52
2022/06/28 02:02:48;;;;;;;47.55;34.83;;;;;;;;;;2067336;28;20209;-54
2022/06/28 02:04:21;;;;;;;49.42;36.83;;;;;;;;;;2074651;28;20609;-49
2022/06/28 02:05:25;;;;;;;48.42;34.65;;;;;;;;;;2074599;28;20196;-53
2022/06/28 02:06:27;;;;;;;48.15;33.97;;;;;;;;;;2074708;28;20177;-55
2022/06/28 02:07:32;;;;;;;49.83;35.28;;;;;;;;;;2074483;28;20550;-52
2022/06/28 02:08:34;;;;;;;50.95;34.30;;;;;;;;;;2075171;28;20181;-55
2022/06/28 02:09:35;;;;;;;53.30;36.45;;;;;;;;;;2066998;28;20189;-54
2022/06/28 02:10:36;;;;;;;46.70;34.63;;;;;;;;;;2066731;28;20276;-53
2022/06/28 02:11:37;;;;;;;47.35;34.15;;;;;;;;;;2066888;28;20177;-55
2022/06/28 02:12:37;;;;;;;45.53;31.77;;;;;;;;;;2066543;28;20206;-54
2022/06/28 02:13:37;;;;;;;46.25;33.63;;;;;;;;;;2067168;28;20200;-55
2022/06/28 02:14:38;;;;;;;42.22;32.92;;;;;;;;;;2067434;28;20253;-47
2022/06/28 02:15:39;;;;;;;43.72;32.08;;;;;;;;;;2067997;28;20181;-55
2022/06/28 02:16:39;;;;;;;48.97;35.25;;;;;;;;;;2071147;28;20239;-54
2022/06/28 02:17:40;;;;;;;44.35;33.50;;;;;;;;;;2076090;28;20171;-54
2022/06/28 02:18:41;;;;;;;40.65;31.63;;;;;;;;;;2076149;28;20225;-52
2022/06/28 02:19:42;;;;;;;43.08;32.33;;;;;;;;;;2075998;28;20252;-53
2022/06/28 02:20:43;;;;;;;44.92;31.95;;;;;;;;;;2075611;28;20223;-53
2022/06/28 02:21:44;;;;;;;39.25;31.63;;;;;;;;;;2075163;28;20176;-49
2022/06/28 02:22:44;;;;;;;44.03;32.72;;;;;;;;;;2075491;28;20193;-50
2022/06/28 02:23:44;;;;;;;41.58;32.47;;;;;;;;;;2074323;28;20173;-48
2022/06/28 02:24:45;;;;;;;39.70;31.50;;;;;;;;;;2061509;28;20171;-51
2022/06/28 02:25:45;;;;;;;42.17;31.92;;;;;;;;;;2059899;28;20643;-49
2022/06/28 02:26:46;;;;;;;40.60;31.85;;;;;;;;;;2073729;28;20169;-54
2022/06/28 02:27:49;;;;;;;44.47;31.38;;;;;;;;;;2074471;28;20239;-50
2022/06/28 02:28:52;;;;;;;40.13;30.67;;;;;;;;;;2074521;28;20227;-50
2022/06/28 02:29:54;;;;;;;42.25;33.50;;;;;;;;;;2073672;28;20180;-51
2022/06/28 02:30:55;;;;;;;44.83;33.88;;;;;;;;;;2065582;28;20182;-50
2022/06/28 02:31:55;;;;;;;55.50;36.47;;;;;;;;;;2065645;28;20264;-50
2022/06/28 02:32:55;;;;;;;55.58;38.55;;;;;;;;;;2065593;28;20216;-48
2022/06/28 02:33:56;;;;;;;57.45;39.85;;;;;;;;;;2065508;28;20170;-51
2022/06/28 02:40:29;;;;;;;62.35;40.80;;;;;;;;;;2065068;28;20177;-53
2022/06/28 02:41:29;;;;;;;64.10;42.55;;;;;;;;;;2065396;28;20220;-50
2022/06/28 02:42:30;;;;;;;61.85;41.45;;;;;;;;;;2069988;28;20236;-51
2022/06/28 02:43:30;;;;;;;60.75;41.30;;;;;;;;;;2065787;28;20177;-50
2022/06/28 02:44:30;;;;;;;57.90;38.72;;;;;;;;;;2068730;28;20244;-51
2022/06/28 02:45:32;;;;;;;61.72;42.08;;;;;;;;;;2065558;28;20312;-48
2022/06/28 02:46:32;;;;;;;62.13;40.60;;;;;;;;;;2062309;28;20175;-52
2022/06/28 02:47:32;;;;;;;57.47;40.45;;;;;;;;;;2057443;28;20178;-50
2022/06/28 02:48:34;;;;;;;63.45;42.72;;;;;;;;;;2057736;28;20257;-51
2022/06/28 02:49:34;;;;;;;61.95;40.67;;;;;;;;;;2057402;28;20185;-53
2022/06/28 02:50:34;;;;;;;64.93;40.97;;;;;;;;;;2073489;28;20184;-51
2022/06/28 02:51:35;;;;;;;62.08;41.88;;;;;;;;;;2081655;28;20168;-49
2022/06/28 02:52:35;;;;;;;61.90;40.75;;;;;;;;;;2074228;28;20195;-52
2022/06/28 02:53:35;;;;;;;61.35;41.40;;;;;;;;;;2065592;28;20248;-55
2022/06/28 02:54:36;;;;;;;57.33;39.67;;;;;;;;;;2064792;28;20180;-53
2022/06/28 02:55:36;;;;;;;64.90;41.92;;;;;;;;;;2073595;28;20189;-50
2022/06/28 02:56:37;;;;;;;62.50;41.20;;;;;;;;;;2065661;28;20173;-50
2022/06/28 02:57:38;;;;;;;61.33;39.85;;;;;;;;;;2065848;28;20174;-52
2022/06/28 02:58:39;;;;;;;56.50;39.60;;;;;;;;;;2065829;28;20546;-50
2022/06/28 02:59:39;;;;;;;58.00;40.63;;;;;;;;;;2073866;28;20193;-51
2022/06/28 03:00:40;;;;;;;61.28;39.60;;;;;;;;;;2073561;28;20293;-49
2022/06/28 03:01:40;;;;;;;57.40;40.40;;;;;;;;;;2073690;28;20177;-49
2022/06/28 03:02:42;;;;;;;60.15;40.83;;;;;;;;;;2084600;22;20242;-52
2022/06/28 03:03:44;;;;;;;58.72;38.13;;;;;;;;;;2084324;28;20187;-54
2022/06/28 03:04:46;;;;;;;54.97;38.78;;;;;;;;;;2081033;28;20631;-57
2022/06/28 03:05:46;;;;;;;57.78;39.10;;;;;;;;;;2072965;28;20173;-55
2022/06/28 03:06:47;;;;;;;57.05;37.47;;;;;;;;;;2081438;28;20176;-55
2022/06/28 03:07:47;;;;;;;49.10;35.60;;;;;;;;;;2081663;28;20180;-51
2022/06/28 03:08:48;;;;;;;49.13;35.47;;;;;;;;;;2081671;28;20669;-56
2022/06/28 03:09:48;;;;;;;55.83;38.05;;;;;;;;;;2081869;28;20251;-55
2022/06/28 03:10:48;;;;;;;51.88;36.33;;;;;;;;;;2081564;28;20176;-54
2022/06/28 03:11:49;;;;;;;50.40;34.88;;;;;;;;;;2081209;28;20314;-55
2022/06/28 03:12:49;;;;;;;48.85;34.08;;;;;;;;;;2081431;28;20219;-54
2022/06/28 03:13:49;;;;;;;44.08;35.83;;;;;;;;;;2081680;28;20722;-51
2022/06/28 03:14:50;;;;;;;48.05;34.92;;;;;;;;;;2072610;28;20792;-53
2022/06/28 03:15:50;;;;;;;41.60;32.25;;;;;;;;;;2073466;28;20191;-52
2022/06/28 03:16:51;;;;;;;44.53;32.58;;;;;;;;;;2070780;28;20172;-49
2022/06/28 03:17:51;;;;;;;41.13;31.98;;;;;;;;;;2073458;28;20219;-52
2022/06/28 03:18:51;;;;;;;42.85;31.67;;;;;;;;;;2073251;28;20169;-50
2022/06/28 03:19:52;;;;;;;43.63;31.38;;;;;;;;;;2073278;28;20185;-51
2022/06/28 03:20:52;;;;;;;40.88;30.60;;;;;;;;;;2073081;28;20184;-52
2022/06/28 03:21:52;;;;;;;44.80;31.38;;;;;;;;;;2073384;28;20205;-52
2022/06/28 03:22:53;;;;;;;39.65;31.33;;;;;;;;;;2064970;28;20205;-51
2022/06/28 03:23:53;;;;;;;36.30;30.10;;;;;;;;;;2073396;28;20204;-50
2022/06/28 03:24:54;;;;;;;43.03;30.45;;;;;;;;;;2082515;28;20184;-52
2022/06/28 03:25:55;;;;;;;44.25;31.30;;;;;;;;;;2075269;28;20177;-51
2022/06/28 03:26:55;;;;;;;38.30;29.30;;;;;;;;;;2080923;28;20633;-51
2022/06/28 03:27:55;;;;;;;44.13;31.17;;;;;;;;;;2084021;28;20637;-51
2022/06/28 03:28:56;;;;;;;45.38;31.23;;;;;;;;;;2083502;28;20247;-51
2022/06/28 03:29:56;;;;;;;40.75;31.90;;;;;;;;;;2084132;28;20648;-53
2022/06/28 03:31:01;;;;;;;39.50;31.45;;;;;;;;;;2084104;28;20179;-54
2022/06/28 03:32:02;;;;;;;41.90;30.52;;;;;;;;;;2075793;28;20204;-57
2022/06/28 03:33:02;;;;;;;45.03;32.55;;;;;;;;;;2076725;28;20208;-58
2022/06/28 03:34:07;;;;;;;39.20;29.80;;;;;;;;;;2084637;28;20172;-54
2022/06/28 03:35:08;;;;;;;43.00;31.73;;;;;;;;;;2076273;28;20654;-55
2022/06/28 03:36:09;;;;;;;39.67;29.52;;;;;;;;;;2076002;28;20169;-54
2022/06/28 03:37:16;;;;;;;42.03;30.23;;;;;;;;;;2075662;28;20664;-54
2022/06/28 03:38:20;;;;;;;42.75;29.63;;;;;;;;;;2082966;28;20183;-56
2022/06/28 03:39:39;;;;;;;37.70;29.75;;;;;;;;;;2076272;28;20238;-53
2022/06/28 03:40:40;;;;;;;38.30;28.98;;;;;;;;;;2073583;28;20169;-57
2022/06/28 03:41:41;;;;;;;43.15;30.85;;;;;;;;;;2073586;28;20176;-53
2022/06/28 03:42:44;;;;;;;43.55;30.85;;;;;;;;;;2082606;28;20610;-55
2022/06/28 03:43:45;;;;;;;37.75;29.13;;;;;;;;;;2082121;28;20191;-57
2022/06/28 03:44:45;;;;;;;41.40;31.30;;;;;;;;;;2081119;28;20636;-52
2022/06/28 03:45:46;;;;;;;44.67;31.00;;;;;;;;;;2081957;28;20222;-54
2022/06/28 03:47:05;;;;;;;40.20;29.58;;;;;;;;;;2082360;28;20645;-57
2022/06/28 03:48:23;;;;;;;39.40;30.13;;;;;;;;;;2083169;28;20206;-55
2022/06/28 03:49:42;;;;;;;45.28;30.35;;;;;;;;;;2082917;28;20546;-53
2022/06/28 03:50:51;;;;;;;38.65;29.33;;;;;;;;;;2082079;28;20173;-54
2022/06/28 03:52:07;;;;;;;37.22;28.23;;;;;;;;;;2075359;28;20267;-51
2022/06/28 03:53:28;;;;;;;35.10;28.48;;;;;;;;;;2067625;28;20212;-57
2022/06/28 03:54:51;;;;;;;35.55;27.58;;;;;;;;;;2081904;28;20194;-55
2022/06/28 03:56:03;;;;;;;40.92;28.65;;;;;;;;;;2081950;28;20271;-54
2022/06/28 03:57:03;;;;;;;37.20;27.73;;;;;;;;;;2073796;28;20203;-54
2022/06/28 03:58:04;;;;;;;41.65;30.13;;;;;;;;;;2073585;28;20181;-54
2022/06/28 03:59:04;;;;;;;38.90;28.80;;;;;;;;;;2081936;28;20183;-56
2022/06/28 04:00:05;;;;;;;38.45;29.83;;;;;;;;;;2081462;28;20586;-52
2022/06/28 04:01:13;;;;;;;38.47;30.15;;;;;;;;;;2081080;28;20643;-53
2022/06/28 04:02:13;;;;;;;38.17;29.20;;;;;;;;;;2083928;28;20186;-50
2022/06/28 04:03:14;;;;;;;42.97;31.10;;;;;;;;;;2081459;28;20212;-51
2022/06/28 04:04:16;;;;;;;43.80;30.45;;;;;;;;;;2070178;28;20184;-49
2022/06/28 04:05:19;;;;;;;42.38;29.35;;;;;;;;;;2072226;28;20176;-52
2022/06/28 04:06:19;;;;;;;40.25;30.80;;;;;;;;;;2081288;28;20164;-54
2022/06/28 04:07:21;;;;;;;37.42;30.80;;;;;;;;;;2081306;28;20172;-52
2022/06/28 04:08:24;;;;;;;40.22;29.70;;;;;;;;;;2073258;28;20177;-56
2022/06/28 04:09:28;;;;;;;35.13;27.10;;;;;;;;;;2074350;28;20172;-53
2022/06/28 04:10:31;;;;;;;40.10;30.48;;;;;;;;;;2072605;28;20572;-53
2022/06/28 04:11:39;;;;;;;35.42;28.23;;;;;;;;;;2074208;28;20263;-54
2022/06/28 04:12:39;;;;;;;45.47;31.38;;;;;;;;;;2075058;28;20808;-53
2022/06/28 04:13:53;;;;;;;34.42;26.35;;;;;;;;;;2081531;28;20633;-55
2022/06/28 04:14:54;;;;;;;41.28;30.65;;;;;;;;;;2072890;28;20180;-55
2022/06/28 04:15:54;;;;;;;38.17;29.15;;;;;;;;;;2065174;28;20634;-51
2022/06/28 04:16:58;;;;;;;34.60;27.48;;;;;;;;;;2073415;28;20181;-53
2022/06/28 04:18:10;;;;;;;38.17;29.35;;;;;;;;;;2064297;28;20166;-55
2022/06/28 04:19:40;;;;;;;37.80;26.75;;;;;;;;;;2078179;28;20176;-53
2022/06/28 04:20:42;;;;;;;35.45;27.40;;;;;;;;;;2072810;28;20173;-55
2022/06/28 04:21:45;;;;;;;37.55;27.90;;;;;;;;;;2073528;28;20553;-52
2022/06/28 04:22:55;;;;;;;34.03;27.45;;;;;;;;;;2074319;28;20289;-52
2022/06/28 04:23:55;;;;;;;34.35;26.40;;;;;;;;;;2074251;28;20556;-55
2022/06/28 04:24:56;;;;;;;40.17;29.05;;;;;;;;;;2080822;28;20740;-56
2022/06/28 04:26:08;;;;;;;34.05;27.65;;;;;;;;;;2081620;28;20172;-55
2022/06/28 04:27:16;;;;;;;34.42;26.92;;;;;;;;;;2078012;28;20168;-53
2022/06/28 04:28:16;;;;;;;37.78;26.63;;;;;;;;;;2072817;28;20168;-55
2022/06/28 04:29:29;;;;;;;34.22;27.85;;;;;;;;;;2075000;28;20184;-56
2022/06/28 04:30:31;;;;;;;31.65;25.63;;;;;;;;;;2073288;28;20650;-57
2022/06/28 04:31:35;;;;;;;37.80;27.13;;;;;;;;;;2073980;28;20200;-55
2022/06/28 04:32:35;;;;;;;39.67;25.85;;;;;;;;;;2072716;28;20192;-56
2022/06/28 04:33:37;;;;;;;29.75;25.73;;;;;;;;;;2081526;28;20176;-54
2022/06/28 04:34:37;;;;;;;30.70;25.58;;;;;;;;;;2080534;28;20286;-58
2022/06/28 04:35:39;;;;;;;32.60;27.55;;;;;;;;;;2080412;28;20164;-54
2022/06/28 04:36:39;;;;;;;30.30;25.92;;;;;;;;;;2085935;28;20520;-53
2022/06/28 04:37:40;;;;;;;29.70;26.25;;;;;;;;;;2086144;28;20237;-58
2022/06/28 04:38:50;;;;;;;33.10;26.05;;;;;;;;;;2072899;28;20165;-57
2022/06/28 04:39:54;;;;;;;31.83;26.67;;;;;;;;;;2067172;28;20192;-53
2022/06/28 04:40:59;;;;;;;25.20;21.67;;;;;;;;;;2073672;28;20205;-53
2022/06/28 04:42:11;;;;;;;29.40;24.67;;;;;;;;;;2081364;28;20176;-52
2022/06/28 04:43:12;;;;;;;27.60;23.02;;;;;;;;;;2072938;28;20193;-56
2022/06/28 04:44:13;;;;;;;30.25;24.65;;;;;;;;;;2071799;28;20276;-53
2022/06/28 04:45:20;;;;;;;28.08;23.50;;;;;;;;;;2080885;28;20183;-57
2022/06/28 04:46:33;;;;;;;32.42;24.98;;;;;;;;;;2072834;28;20196;-56
2022/06/28 04:47:38;;;;;;;31.65;25.92;;;;;;;;;;2080039;28;20190;-57
2022/06/28 04:48:38;;;;;;;28.50;25.40;;;;;;;;;;2072630;28;20184;-51
2022/06/28 04:49:38;;;;;;;32.72;27.45;;;;;;;;;;2064421;28;20186;-56
2022/06/28 04:50:39;;;;;;;30.58;25.35;;;;;;;;;;2081055;28;20699;-54
2022/06/28 04:51:40;;;;;;;29.25;25.55;;;;;;;;;;2080894;28;20181;-53
2022/06/28 04:52:41;;;;;;;30.05;26.67;;;;;;;;;;2072650;28;20199;-56
2022/06/28 04:53:42;;;;;;;35.15;27.08;;;;;;;;;;2073396;28;20789;-56
2022/06/28 04:54:42;;;;;;;32.85;26.40;;;;;;;;;;2065830;28;20177;-57
2022/06/28 04:55:45;;;;;;;33.28;26.52;;;;;;;;;;2075654;28;20563;-57
2022/06/28 04:56:46;;;;;;;37.03;29.83;;;;;;;;;;2083485;28;20191;-58
2022/06/28 04:57:46;;;;;;;32.03;27.63;;;;;;;;;;2075064;28;20602;-58
2022/06/28 04:58:50;;;;;;;32.00;27.67;;;;;;;;;;2075644;28;20259;-58
2022/06/28 04:59:51;;;;;;;28.38;25.42;;;;;;;;;;2073156;28;20181;-61
2022/06/28 05:01:05;;;;;;;31.58;27.83;;;;;;;;;;2083251;28;20172;-61
2022/06/28 05:02:05;;;;;;;31.67;25.77;;;;;;;;;;2083615;28;20238;-59
2022/06/28 05:03:05;;;;;;;33.67;26.52;;;;;;;;;;2083902;28;20212;-58
2022/06/28 05:04:35;;;;;;;32.88;26.85;;;;;;;;;;2075158;28;20251;-57
2022/06/28 05:05:54;;;;;;;33.35;27.05;;;;;;;;;;2080822;28;20180;-58
2022/06/28 05:06:55;;;;;;;33.85;26.75;;;;;;;;;;2082785;28;20179;-62
2022/06/28 05:07:55;;;;;;;36.97;28.52;;;;;;;;;;2081304;28;20176;-59
2022/06/28 05:09:01;;;;;;;35.53;30.02;;;;;;;;;;2082504;28;20168;-58
2022/06/28 05:10:03;;;;;;;32.95;29.25;;;;;;;;;;2082733;28;20172;-60
2022/06/28 05:11:03;;;;;;;37.60;31.45;;;;;;;;;;2082497;28;20182;-57
2022/06/28 05:12:30;;;;;;;40.75;31.10;;;;;;;;;;2060136;28;20237;-58
2022/06/28 05:13:30;;;;;;;39.05;31.65;;;;;;;;;;2081336;28;20762;-58
2022/06/28 05:14:32;;;;;;;39.13;29.98;;;;;;;;;;2072528;28;20230;-56
2022/06/28 05:15:33;;;;;;;39.33;31.85;;;;;;;;;;2073446;28;20184;-57
2022/06/28 05:16:38;;;;;;;44.13;32.35;;;;;;;;;;2072963;28;20169;-59
2022/06/28 05:17:40;;;;;;;38.92;30.38;;;;;;;;;;2065720;28;20177;-58
2022/06/28 05:18:40;;;;;;;51.95;33.30;;;;;;;;;;2081267;28;20266;-59
2022/06/28 05:19:44;;;;;;;45.72;33.38;;;;;;;;;;2073341;28;20173;-57
2022/06/28 05:20:45;;;;;;;39.75;31.25;;;;;;;;;;2080790;28;20176;-60
2022/06/28 05:21:45;;;;;;;39.95;31.05;;;;;;;;;;2071579;28;20542;-58
2022/06/28 05:22:46;;;;;;;44.15;34.17;;;;;;;;;;2072036;28;20204;-57
2022/06/28 05:24:16;;;;;;;42.00;30.13;;;;;;;;;;2071496;28;20180;-57
2022/06/28 05:25:26;;;;;;;41.63;30.42;;;;;;;;;;2080685;28;20259;-56
2022/06/28 05:26:26;;;;;;;42.83;31.50;;;;;;;;;;2080658;28;20168;-62
2022/06/28 05:27:43;;;;;;;37.28;29.30;;;;;;;;;;2070133;28;20173;-59
2022/06/28 05:28:43;;;;;;;41.60;30.55;;;;;;;;;;2072182;28;20168;-58
2022/06/28 05:29:43;;;;;;;37.50;29.95;;;;;;;;;;2072895;28;20568;-58
2022/06/28 05:30:44;;;;;;;37.80;29.65;;;;;;;;;;2071806;28;20183;-57
2022/06/28 05:31:44;;;;;;;40.25;29.42;;;;;;;;;;2072558;28;20238;-58
2022/06/28 05:32:45;;;;;;;37.92;29.52;;;;;;;;;;2072410;28;20275;-59
2022/06/28 05:33:46;;;;;;;49.42;30.17;;;;;;;;;;2072852;28;20739;-56
2022/06/28 05:34:46;;;;;;;44.25;28.98;;;;;;;;;;2080564;28;20195;-56
2022/06/28 05:35:46;;;;;;;35.08;29.48;;;;;;;;;;2081068;28;20278;-59
2022/06/28 05:36:47;;;;;;;36.67;29.33;;;;;;;;;;2072719;28;20219;-57
2022/06/28 05:37:48;;;;;;;34.15;27.00;;;;;;;;;;2073114;28;20173;-58
2022/06/28 05:38:49;;;;;;;36.60;28.40;;;;;;;;;;2081212;28;20156;-58
2022/06/28 05:39:49;;;;;;;40.58;28.58;;;;;;;;;;2081927;28;20172;-58
2022/06/28 05:40:49;;;;;;;34.88;27.05;;;;;;;;;;2080986;28;20200;-59
2022/06/28 05:41:50;;;;;;;33.58;27.20;;;;;;;;;;2080859;28;20206;-59
2022/06/28 05:42:50;;;;;;;32.28;25.33;;;;;;;;;;2081013;28;20200;-58
2022/06/28 05:43:50;;;;;;;32.83;25.58;;;;;;;;;;2072711;28;20169;-57
2022/06/28 05:44:51;;;;;;;30.02;24.10;;;;;;;;;;2080574;28;20192;-56
2022/06/28 05:45:51;;;;;;;31.02;25.27;;;;;;;;;;2079731;28;20572;-56
2022/06/28 05:46:51;;;;;;;33.58;24.77;;;;;;;;;;2080809;28;20169;-57
2022/06/28 05:47:52;;;;;;;34.15;24.38;;;;;;;;;;2081133;28;20235;-59
2022/06/28 05:48:52;;;;;;;32.38;24.35;;;;;;;;;;2081207;28;20164;-59
2022/06/28 05:49:52;;;;;;;29.35;24.25;;;;;;;;;;2081009;28;20172;-57
2022/06/28 05:50:53;;;;;;;37.25;23.55;;;;;;;;;;2081752;28;20184;-56
2022/06/28 05:51:54;;;;;;;30.02;23.73;;;;;;;;;;2080784;28;20176;-56
2022/06/28 05:52:54;;;;;;;38.22;24.38;;;;;;;;;;2072941;28;20315;-58
2022/06/28 05:53:55;;;;;;;35.60;24.67;;;;;;;;;;2080550;28;20173;-59
2022/06/28 05:54:56;;;;;;;28.88;22.95;;;;;;;;;;2072502;28;20219;-58
2022/06/28 05:55:56;;;;;;;27.92;22.25;;;;;;;;;;2081261;28;20171;-52
2022/06/28 05:56:57;;;;;;;24.33;20.33;;;;;;;;;;2081366;28;20579;-58
2022/06/28 05:57:57;;;;;;;26.73;20.98;;;;;;;;;;2072801;28;20180;-53
2022/06/28 05:58:58;;;;;;;26.85;21.52;;;;;;;;;;2064739;28;20176;-53
2022/06/28 05:59:58;;;;;;;25.58;21.92;;;;;;;;;;2080799;28;20187;-56
2022/06/28 06:00:58;;;;;;;22.42;19.15;;;;;;;;;;2080869;28;20200;-52
2022/06/28 06:01:59;;;;;;;22.88;19.75;;;;;;;;;;2080992;28;20767;-56
2022/06/28 06:03:00;;;;;;;21.10;17.90;;;;;;;;;;2080754;28;20211;-50
2022/06/28 06:04:00;;;;;;;23.50;18.67;;;;;;;;;;2072345;28;20650;-54
2022/06/28 06:05:02;;;;;;;23.10;17.95;;;;;;;;;;2080948;28;20181;-56
2022/06/28 06:06:03;;;;;;;24.35;18.50;;;;;;;;;;2080998;28;20176;-54
2022/06/28 06:07:04;;;;;;;21.00;18.00;;;;;;;;;;2072519;28;20188;-56
2022/06/28 06:08:05;;;;;;;18.73;16.23;;;;;;;;;;2081044;28;20168;-55
2022/06/28 06:09:05;;;;;;;17.85;15.65;;;;;;;;;;2081118;28;20180;-54
2022/06/28 06:10:06;;;;;;;16.40;14.70;;;;;;;;;;2080968;28;20200;-57
2022/06/28 06:11:09;;;;;;;16.98;14.80;;;;;;;;;;2072480;28;20220;-54
2022/06/28 06:12:09;;;;;;;18.40;16.10;;;;;;;;;;2069832;28;20613;-57
2022/06/28 06:13:10;;;;;;;19.42;16.65;;;;;;;;;;2072507;28;20205;-55